createdAt,value
2017-01-16T00:00:15.141Z,83.47
2017-01-16T00:00:41.227Z,83.28
2017-01-16T00:01:07.337Z,83.47
2017-01-16T00:01:33.440Z,83.66
2017-01-16T00:01:59.533Z,83.75
2017-01-16T00:02:25.632Z,83.56
2017-01-16T00:02:51.743Z,83.75
2017-01-16T00:03:17.839Z,83.56
2017-01-16T00:03:43.933Z,83.28
2017-01-16T00:04:10.038Z,83.37
2017-01-16T00:04:36.134Z,83.47
2017-01-16T00:05:02.226Z,83.37
2017-01-16T00:05:28.336Z,82.9
2017-01-16T00:05:54.441Z,83
2017-01-16T00:06:20.528Z,82.81
2017-01-16T00:06:46.637Z,83
2017-01-16T00:07:12.733Z,83.37
2017-01-16T00:07:38.831Z,83.18
2017-01-16T00:08:04.937Z,83.18
2017-01-16T00:08:31.047Z,83.28
2017-01-16T00:08:57.160Z,83.09
2017-01-16T00:09:23.262Z,82.9
2017-01-16T00:09:49.374Z,83
2017-01-16T00:10:15.463Z,83
2017-01-16T00:10:41.560Z,83.18
2017-01-16T00:11:07.656Z,83.18
2017-01-16T00:11:33.759Z,83.09
2017-01-16T00:11:59.873Z,83
2017-01-16T00:12:25.959Z,82.9
2017-01-16T00:12:52.060Z,83.09
2017-01-16T00:13:18.161Z,83.09
2017-01-16T00:13:44.256Z,83.09
2017-01-16T00:14:10.378Z,83
2017-01-16T00:14:36.488Z,83.09
2017-01-16T00:15:02.586Z,83
2017-01-16T00:15:28.672Z,83
2017-01-16T00:15:54.784Z,82.9
2017-01-16T00:16:20.882Z,82.43
2017-01-16T00:16:46.991Z,82.43
2017-01-16T00:17:13.078Z,82.81
2017-01-16T00:17:39.173Z,82.43
2017-01-16T00:18:05.281Z,83
2017-01-16T00:18:31.378Z,82.9
2017-01-16T00:18:57.475Z,82.71
2017-01-16T00:19:23.583Z,82.24
2017-01-16T00:19:49.675Z,82.62
2017-01-16T00:20:15.768Z,82.43
2017-01-16T00:20:41.878Z,82.43
2017-01-16T00:21:07.982Z,82.43
2017-01-16T00:21:34.074Z,82.43
2017-01-16T00:22:00.179Z,82.24
2017-01-16T00:22:26.263Z,82.71
2017-01-16T00:22:52.378Z,82.71
2017-01-16T00:23:18.475Z,82.43
2017-01-16T00:23:44.571Z,82.62
2017-01-16T00:24:10.675Z,82.43
2017-01-16T00:24:36.776Z,82.9
2017-01-16T00:25:02.866Z,82.71
2017-01-16T00:25:28.973Z,82.9
2017-01-16T00:25:55.080Z,82.71
2017-01-16T00:26:21.160Z,82.52
2017-01-16T00:26:47.257Z,82.9
2017-01-16T00:27:13.363Z,83
2017-01-16T00:27:39.458Z,82.71
2017-01-16T00:28:05.566Z,82.43
2017-01-16T00:28:31.656Z,82.9
2017-01-16T00:28:57.760Z,82.62
2017-01-16T00:29:23.874Z,82.62
2017-01-16T00:29:49.965Z,82.71
2017-01-16T00:30:16.069Z,82.62
2017-01-16T00:30:42.182Z,82.81
2017-01-16T00:31:08.273Z,83
2017-01-16T00:31:34.369Z,83.09
2017-01-16T00:32:00.477Z,82.81
2017-01-16T00:32:26.570Z,83.28
2017-01-16T00:32:52.665Z,83.28
2017-01-16T00:33:18.766Z,82.9
2017-01-16T00:33:44.863Z,83
2017-01-16T00:34:10.968Z,83
2017-01-16T00:34:37.052Z,82.81
2017-01-16T00:35:03.154Z,82.9
2017-01-16T00:35:29.260Z,83
2017-01-16T00:35:55.362Z,83
2017-01-16T00:36:21.438Z,83.28
2017-01-16T00:36:47.548Z,82.81
2017-01-16T00:37:13.651Z,82.9
2017-01-16T00:37:39.740Z,83.18
2017-01-16T00:38:05.849Z,83
2017-01-16T00:38:31.944Z,83
2017-01-16T00:38:58.077Z,83
2017-01-16T00:39:24.167Z,83
2017-01-16T00:39:50.258Z,82.9
2017-01-16T00:40:16.374Z,83
2017-01-16T00:40:42.475Z,83.09
2017-01-16T00:41:08.569Z,82.9
2017-01-16T00:41:34.677Z,82.71
2017-01-16T00:42:00.780Z,83.18
2017-01-16T00:42:26.867Z,83
2017-01-16T00:42:52.973Z,83.18
2017-01-16T00:43:19.105Z,83
2017-01-16T00:43:45.250Z,83.09
2017-01-16T00:44:11.349Z,83.28
2017-01-16T00:44:37.441Z,83
2017-01-16T00:45:03.550Z,83.18
2017-01-16T00:45:29.650Z,83
2017-01-16T00:45:55.738Z,82.71
2017-01-16T00:46:21.866Z,82.71
2017-01-16T00:46:47.969Z,83.28
2017-01-16T00:47:14.055Z,83
2017-01-16T00:47:40.159Z,82.81
2017-01-16T00:48:06.269Z,82.81
2017-01-16T00:48:32.359Z,83
2017-01-16T00:48:58.457Z,83
2017-01-16T00:49:24.585Z,83
2017-01-16T00:49:50.682Z,83.18
2017-01-16T00:50:16.774Z,83.37
2017-01-16T00:50:42.884Z,82.9
2017-01-16T00:51:08.978Z,83
2017-01-16T00:51:35.068Z,83
2017-01-16T00:52:01.177Z,83
2017-01-16T00:52:27.276Z,83.18
2017-01-16T00:52:53.396Z,83
2017-01-16T00:53:19.498Z,83.28
2017-01-16T00:53:45.610Z,83.28
2017-01-16T00:54:11.698Z,83.28
2017-01-16T00:54:37.799Z,83.28
2017-01-16T00:55:03.899Z,82.81
2017-01-16T00:55:29.994Z,82.9
2017-01-16T00:55:56.099Z,82.71
2017-01-16T00:56:22.187Z,83.28
2017-01-16T00:56:48.294Z,83.28
2017-01-16T00:57:14.404Z,83
2017-01-16T00:57:40.489Z,83.18
2017-01-16T00:58:06.596Z,83
2017-01-16T00:58:33.006Z,83.09
2017-01-16T00:58:59.094Z,83.09
2017-01-16T00:59:25.184Z,83
2017-01-16T00:59:51.295Z,82.9
2017-01-16T01:00:17.389Z,83.47
2017-01-16T01:00:43.482Z,82.9
2017-01-16T01:01:09.590Z,83.37
2017-01-16T01:01:35.689Z,83.09
2017-01-16T01:02:01.798Z,83.37
2017-01-16T01:02:27.882Z,83.47
2017-01-16T01:02:53.980Z,83.66
2017-01-16T01:03:20.083Z,83.75
2017-01-16T01:03:46.176Z,83.47
2017-01-16T01:04:12.261Z,83.66
2017-01-16T01:04:38.377Z,83.75
2017-01-16T01:05:04.470Z,83.66
2017-01-16T01:05:30.564Z,83.28
2017-01-16T01:05:56.668Z,83.09
2017-01-16T01:06:22.766Z,83.75
2017-01-16T01:06:48.869Z,83.18
2017-01-16T01:07:14.964Z,83.56
2017-01-16T01:07:41.056Z,83.75
2017-01-16T01:08:07.162Z,83.75
2017-01-16T01:08:33.255Z,83.37
2017-01-16T01:08:59.346Z,83.18
2017-01-16T01:09:25.454Z,83.28
2017-01-16T01:09:51.556Z,83.94
2017-01-16T01:10:17.640Z,83.85
2017-01-16T01:10:43.747Z,83.75
2017-01-16T01:11:09.853Z,84.04
2017-01-16T01:11:35.947Z,84.13
2017-01-16T01:12:02.045Z,84.04
2017-01-16T01:12:28.142Z,84.13
2017-01-16T01:12:54.246Z,83.75
2017-01-16T01:13:20.345Z,83.94
2017-01-16T01:13:46.437Z,84
2017-01-16T01:14:12.539Z,84.42
2017-01-16T01:14:38.650Z,84.42
2017-01-16T01:15:04.736Z,84.61
2017-01-16T01:15:30.835Z,84.13
2017-01-16T01:15:56.937Z,84.04
2017-01-16T01:16:23.031Z,84.13
2017-01-16T01:16:49.127Z,84.32
2017-01-16T01:17:15.231Z,83.94
2017-01-16T01:17:41.329Z,84.04
2017-01-16T01:18:07.432Z,84.13
2017-01-16T01:18:33.519Z,84.04
2017-01-16T01:18:59.626Z,83.66
2017-01-16T01:19:25.729Z,84.04
2017-01-16T01:19:51.817Z,84.04
2017-01-16T01:20:17.908Z,84.04
2017-01-16T01:20:44.021Z,83.94
2017-01-16T01:21:10.113Z,84.13
2017-01-16T01:21:36.206Z,83.47
2017-01-16T01:22:02.311Z,83.75
2017-01-16T01:22:28.409Z,83.66
2017-01-16T01:22:54.496Z,83.75
2017-01-16T01:23:20.598Z,83.75
2017-01-16T01:23:46.692Z,83.18
2017-01-16T01:24:12.794Z,83.47
2017-01-16T01:24:38.893Z,83.66
2017-01-16T01:25:04.977Z,83.66
2017-01-16T01:25:31.092Z,83.28
2017-01-16T01:25:57.189Z,83
2017-01-16T01:26:23.281Z,83.09
2017-01-16T01:26:49.384Z,83.18
2017-01-16T01:27:15.482Z,83.28
2017-01-16T01:27:41.573Z,83.09
2017-01-16T01:28:07.674Z,83.09
2017-01-16T01:28:33.778Z,83
2017-01-16T01:28:59.870Z,82.71
2017-01-16T01:29:25.968Z,82.9
2017-01-16T01:29:52.057Z,82.9
2017-01-16T01:30:18.164Z,82.43
2017-01-16T01:30:44.266Z,82.62
2017-01-16T01:31:10.350Z,82.71
2017-01-16T01:31:36.455Z,82.43
2017-01-16T01:32:02.559Z,82.33
2017-01-16T01:32:28.648Z,82.24
2017-01-16T01:32:54.746Z,83.09
2017-01-16T01:33:20.851Z,82.43
2017-01-16T01:33:46.941Z,82.52
2017-01-16T01:34:13.036Z,83.18
2017-01-16T01:34:39.145Z,83.09
2017-01-16T01:35:05.238Z,82.62
2017-01-16T01:35:31.332Z,82.43
2017-01-16T01:35:57.441Z,82.43
2017-01-16T01:36:23.538Z,82.14
2017-01-16T01:36:49.622Z,82.24
2017-01-16T01:37:15.731Z,82.14
2017-01-16T01:37:41.834Z,82.33
2017-01-16T01:38:07.921Z,82.05
2017-01-16T01:38:34.026Z,81.95
2017-01-16T01:39:00.133Z,82.05
2017-01-16T01:39:26.243Z,81.67
2017-01-16T01:39:52.345Z,81.95
2017-01-16T01:40:18.444Z,81.86
2017-01-16T01:40:44.553Z,82.33
2017-01-16T01:41:10.644Z,82.14
2017-01-16T01:41:36.741Z,82.43
2017-01-16T01:42:02.840Z,82.33
2017-01-16T01:42:28.949Z,82.33
2017-01-16T01:42:55.031Z,82.24
2017-01-16T01:43:21.130Z,82.05
2017-01-16T01:43:47.235Z,81.95
2017-01-16T01:44:13.322Z,82.33
2017-01-16T01:44:39.418Z,81.95
2017-01-16T01:45:05.532Z,81.95
2017-01-16T01:45:31.625Z,81.95
2017-01-16T01:45:57.729Z,81.95
2017-01-16T01:46:23.822Z,82.33
2017-01-16T01:46:49.920Z,82.05
2017-01-16T01:47:16.031Z,82.14
2017-01-16T01:47:42.117Z,81.57
2017-01-16T01:48:08.212Z,82.05
2017-01-16T01:48:34.319Z,82.05
2017-01-16T01:49:00.419Z,82.14
2017-01-16T01:49:26.511Z,82.24
2017-01-16T01:49:52.622Z,81.95
2017-01-16T01:50:18.712Z,81.76
2017-01-16T01:50:44.797Z,81.86
2017-01-16T01:51:10.904Z,81.76
2017-01-16T01:51:36.999Z,82.14
2017-01-16T01:52:03.099Z,81.57
2017-01-16T01:52:29.194Z,81.95
2017-01-16T01:52:55.280Z,81.86
2017-01-16T01:53:21.395Z,81.67
2017-01-16T01:53:47.521Z,81.95
2017-01-16T01:54:13.579Z,81.86
2017-01-16T01:54:39.687Z,82.05
2017-01-16T01:55:05.790Z,81.95
2017-01-16T01:55:31.881Z,81.76
2017-01-16T01:55:57.987Z,81.76
2017-01-16T01:56:24.096Z,81.95
2017-01-16T01:56:50.184Z,82.05
2017-01-16T01:57:16.281Z,81.57
2017-01-16T01:57:42.387Z,81.86
2017-01-16T01:58:08.478Z,81.57
2017-01-16T01:58:34.574Z,81.86
2017-01-16T01:59:00.686Z,81.67
2017-01-16T01:59:26.777Z,82.05
2017-01-16T01:59:52.864Z,82.05
2017-01-16T02:00:18.969Z,81.29
2017-01-16T02:00:45.069Z,81.1
2017-01-16T02:01:11.185Z,81.38
2017-01-16T02:01:37.291Z,81.29
2017-01-16T02:02:03.391Z,81.48
2017-01-16T02:02:29.488Z,81.01
2017-01-16T02:02:55.588Z,81.38
2017-01-16T02:03:21.681Z,81.38
2017-01-16T02:03:47.790Z,81.57
2017-01-16T02:04:13.887Z,81.76
2017-01-16T02:04:39.972Z,81.57
2017-01-16T02:05:06.083Z,81.48
2017-01-16T02:05:32.182Z,81.48
2017-01-16T02:05:58.279Z,81.38
2017-01-16T02:06:24.380Z,81.48
2017-01-16T02:06:50.482Z,81.29
2017-01-16T02:07:16.566Z,82.05
2017-01-16T02:07:42.670Z,81.76
2017-01-16T02:08:08.765Z,82.05
2017-01-16T02:08:34.869Z,81.76
2017-01-16T02:09:00.964Z,81.95
2017-01-16T02:09:27.059Z,81.76
2017-01-16T02:09:53.162Z,81.76
2017-01-16T02:10:19.274Z,81.67
2017-01-16T02:10:45.355Z,81.95
2017-01-16T02:11:11.456Z,82.14
2017-01-16T02:11:37.558Z,81.67
2017-01-16T02:12:03.655Z,81.76
2017-01-16T02:12:29.751Z,81.86
2017-01-16T02:12:55.862Z,81.76
2017-01-16T02:13:21.954Z,81.95
2017-01-16T02:13:48.058Z,81.76
2017-01-16T02:14:14.151Z,81.95
2017-01-16T02:14:40.255Z,81.86
2017-01-16T02:15:06.360Z,81.86
2017-01-16T02:15:32.451Z,81.67
2017-01-16T02:15:58.545Z,81.76
2017-01-16T02:16:24.652Z,81.67
2017-01-16T02:16:50.745Z,81.57
2017-01-16T02:17:16.836Z,81.76
2017-01-16T02:17:42.949Z,81.67
2017-01-16T02:18:09.038Z,81.57
2017-01-16T02:18:35.128Z,81.38
2017-01-16T02:19:01.239Z,81.57
2017-01-16T02:19:27.336Z,81.67
2017-01-16T02:19:53.431Z,81.76
2017-01-16T02:20:19.531Z,81.67
2017-01-16T02:20:45.639Z,81.86
2017-01-16T02:21:11.720Z,81.95
2017-01-16T02:21:37.821Z,82.05
2017-01-16T02:22:03.931Z,81.95
2017-01-16T02:22:30.019Z,82.05
2017-01-16T02:22:56.116Z,81.86
2017-01-16T02:23:22.226Z,81.76
2017-01-16T02:23:48.321Z,81.67
2017-01-16T02:24:14.409Z,81.67
2017-01-16T02:24:40.519Z,81.48
2017-01-16T02:25:06.618Z,81.67
2017-01-16T02:25:32.718Z,81.67
2017-01-16T02:25:58.816Z,81.76
2017-01-16T02:26:24.932Z,82.05
2017-01-16T02:26:51.042Z,81.86
2017-01-16T02:27:17.130Z,81.86
2017-01-16T02:27:43.224Z,81.76
2017-01-16T02:28:09.330Z,81.95
2017-01-16T02:28:35.427Z,81.76
2017-01-16T02:29:01.513Z,81.48
2017-01-16T02:29:27.617Z,81.38
2017-01-16T02:29:53.748Z,81.67
2017-01-16T02:30:19.817Z,81.57
2017-01-16T02:30:45.907Z,81.57
2017-01-16T02:31:12.001Z,81.48
2017-01-16T02:31:38.106Z,81.95
2017-01-16T02:32:04.208Z,81.76
2017-01-16T02:32:30.291Z,81.67
2017-01-16T02:32:56.401Z,81.86
2017-01-16T02:33:22.497Z,81.76
2017-01-16T02:33:48.585Z,81.86
2017-01-16T02:34:14.695Z,81.48
2017-01-16T02:34:40.803Z,81.86
2017-01-16T02:35:06.889Z,81.76
2017-01-16T02:35:32.986Z,81.86
2017-01-16T02:35:59.086Z,81.67
2017-01-16T02:36:25.191Z,81.38
2017-01-16T02:36:51.290Z,81.48
2017-01-16T02:37:17.385Z,81.67
2017-01-16T02:37:43.486Z,82.05
2017-01-16T02:38:09.594Z,82.14
2017-01-16T02:38:35.681Z,82.33
2017-01-16T02:39:01.781Z,82.05
2017-01-16T02:39:27.889Z,82.14
2017-01-16T02:39:53.982Z,81.86
2017-01-16T02:40:20.078Z,82.24
2017-01-16T02:40:46.183Z,82.14
2017-01-16T02:41:12.276Z,82.33
2017-01-16T02:41:38.381Z,82.05
2017-01-16T02:42:04.468Z,82.14
2017-01-16T02:42:30.567Z,81.67
2017-01-16T02:42:56.681Z,81.57
2017-01-16T02:43:22.774Z,81.67
2017-01-16T02:43:48.868Z,81.67
2017-01-16T02:44:14.976Z,82.14
2017-01-16T02:44:41.068Z,81.95
2017-01-16T02:45:07.151Z,82.43
2017-01-16T02:45:33.263Z,81.86
2017-01-16T02:45:59.363Z,82.43
2017-01-16T02:46:25.457Z,82.71
2017-01-16T02:46:51.563Z,82.24
2017-01-16T02:47:17.658Z,82.62
2017-01-16T02:47:43.768Z,82.62
2017-01-16T02:48:09.855Z,82.62
2017-01-16T02:48:35.948Z,82.14
2017-01-16T02:49:02.060Z,82.71
2017-01-16T02:49:28.156Z,82.71
2017-01-16T02:49:54.241Z,82.62
2017-01-16T02:50:20.355Z,82.62
2017-01-16T02:50:46.457Z,82.62
2017-01-16T02:51:12.550Z,82.71
2017-01-16T02:51:38.647Z,82.71
2017-01-16T02:52:04.751Z,82.62
2017-01-16T02:52:30.846Z,82.52
2017-01-16T02:52:56.949Z,82.71
2017-01-16T02:53:23.035Z,82.62
2017-01-16T02:53:49.144Z,82.14
2017-01-16T02:54:15.238Z,82.14
2017-01-16T02:54:41.331Z,82.43
2017-01-16T02:55:07.437Z,82.33
2017-01-16T02:55:33.543Z,82.05
2017-01-16T02:55:59.635Z,82.62
2017-01-16T02:56:25.748Z,82.62
2017-01-16T02:56:51.856Z,82.43
2017-01-16T02:57:17.949Z,82.24
2017-01-16T02:57:44.052Z,82.33
2017-01-16T02:58:10.143Z,82.05
2017-01-16T02:58:36.248Z,82.62
2017-01-16T02:59:02.359Z,82.24
2017-01-16T02:59:28.446Z,82.05
2017-01-16T02:59:54.546Z,81.76
2017-01-16T03:00:20.652Z,81.67
2017-01-16T03:00:46.745Z,81.62
2017-01-16T03:01:12.855Z,81.71
2017-01-16T03:01:38.950Z,81.71
2017-01-16T03:02:05.046Z,81.99
2017-01-16T03:02:31.137Z,81.67
2017-01-16T03:02:57.245Z,81.38
2017-01-16T03:03:23.338Z,81.38
2017-01-16T03:03:49.433Z,81.29
2017-01-16T03:04:15.536Z,81.43
2017-01-16T03:04:41.635Z,81.24
2017-01-16T03:05:07.730Z,81.01
2017-01-16T03:05:33.836Z,81.24
2017-01-16T03:05:59.938Z,81.05
2017-01-16T03:06:26.025Z,81.38
2017-01-16T03:06:52.127Z,81.29
2017-01-16T03:07:18.241Z,81.52
2017-01-16T03:07:44.324Z,81.52
2017-01-16T03:08:10.421Z,80.95
2017-01-16T03:08:36.520Z,81.33
2017-01-16T03:09:02.615Z,81.43
2017-01-16T03:09:28.728Z,81.2
2017-01-16T03:09:54.817Z,81.05
2017-01-16T03:10:20.920Z,80.95
2017-01-16T03:10:47.024Z,80.86
2017-01-16T03:11:13.116Z,81.2
2017-01-16T03:11:39.210Z,81.52
2017-01-16T03:12:05.318Z,81.43
2017-01-16T03:12:31.405Z,81.52
2017-01-16T03:12:57.492Z,81.33
2017-01-16T03:13:23.603Z,80.86
2017-01-16T03:13:49.702Z,80.95
2017-01-16T03:14:15.795Z,80.72
2017-01-16T03:14:41.897Z,80.95
2017-01-16T03:15:07.990Z,80.72
2017-01-16T03:15:34.094Z,81.05
2017-01-16T03:16:00.188Z,80.76
2017-01-16T03:16:26.274Z,80.76
2017-01-16T03:16:52.387Z,81.33
2017-01-16T03:17:18.483Z,81.05
2017-01-16T03:17:44.572Z,80.95
2017-01-16T03:18:10.682Z,80.48
2017-01-16T03:18:36.786Z,80.72
2017-01-16T03:19:02.872Z,81.01
2017-01-16T03:19:28.976Z,80.91
2017-01-16T03:19:55.080Z,81.29
2017-01-16T03:20:21.176Z,81.57
2017-01-16T03:20:47.274Z,81.33
2017-01-16T03:21:13.369Z,81.52
2017-01-16T03:21:39.478Z,81.33
2017-01-16T03:22:05.580Z,81.38
2017-01-16T03:22:31.669Z,81.48
2017-01-16T03:22:57.772Z,81.48
2017-01-16T03:23:23.879Z,81.57
2017-01-16T03:23:49.961Z,81.48
2017-01-16T03:24:16.061Z,81.57
2017-01-16T03:24:42.169Z,81.86
2017-01-16T03:25:08.262Z,81.76
2017-01-16T03:25:34.358Z,81.29
2017-01-16T03:26:00.451Z,81.38
2017-01-16T03:26:26.560Z,81.48
2017-01-16T03:26:52.668Z,81.67
2017-01-16T03:27:18.755Z,81.67
2017-01-16T03:27:44.852Z,82.05
2017-01-16T03:28:10.952Z,81.76
2017-01-16T03:28:37.047Z,82.05
2017-01-16T03:29:03.144Z,81.67
2017-01-16T03:29:29.251Z,81.76
2017-01-16T03:29:55.345Z,81.95
2017-01-16T03:30:21.437Z,82.14
2017-01-16T03:30:47.548Z,82.33
2017-01-16T03:31:13.651Z,82.9
2017-01-16T03:31:39.756Z,82.14
2017-01-16T03:32:05.843Z,83.09
2017-01-16T03:32:31.964Z,82.33
2017-01-16T03:32:58.069Z,82.43
2017-01-16T03:33:24.164Z,82.33
2017-01-16T03:33:50.261Z,82.52
2017-01-16T03:34:16.367Z,82.43
2017-01-16T03:34:42.463Z,82.81
2017-01-16T03:35:08.558Z,82.9
2017-01-16T03:35:34.663Z,82.62
2017-01-16T03:36:00.768Z,83
2017-01-16T03:36:26.859Z,82.81
2017-01-16T03:36:52.964Z,83.09
2017-01-16T03:37:19.047Z,82.81
2017-01-16T03:37:45.162Z,83.66
2017-01-16T03:38:11.262Z,84.13
2017-01-16T03:38:37.353Z,84.04
2017-01-16T03:39:03.457Z,83.94
2017-01-16T03:39:29.557Z,83.75
2017-01-16T03:39:55.648Z,83.66
2017-01-16T03:40:21.753Z,83.37
2017-01-16T03:40:47.858Z,83.18
2017-01-16T03:41:13.946Z,82.81
2017-01-16T03:41:40.043Z,83
2017-01-16T03:42:06.149Z,83
2017-01-16T03:42:32.243Z,82.9
2017-01-16T03:42:58.344Z,83.18
2017-01-16T03:43:24.447Z,83.75
2017-01-16T03:43:50.538Z,83.66
2017-01-16T03:44:16.632Z,84.23
2017-01-16T03:44:42.740Z,83.81
2017-01-16T03:45:08.913Z,83.94
2017-01-16T03:45:35.000Z,84.28
2017-01-16T03:46:01.118Z,84.47
2017-01-16T03:46:27.203Z,84.09
2017-01-16T03:46:53.298Z,84
2017-01-16T03:47:19.399Z,84.47
2017-01-16T03:47:45.510Z,84.19
2017-01-16T03:48:11.595Z,85.13
2017-01-16T03:48:37.695Z,84.75
2017-01-16T03:49:03.796Z,84.66
2017-01-16T03:49:29.887Z,84.56
2017-01-16T03:49:55.981Z,85.32
2017-01-16T03:50:22.092Z,85.89
2017-01-16T03:50:48.180Z,85.8
2017-01-16T03:51:14.273Z,85.42
2017-01-16T03:51:40.378Z,85.99
2017-01-16T03:52:06.476Z,85.8
2017-01-16T03:52:32.564Z,85.89
2017-01-16T03:52:58.675Z,85.8
2017-01-16T03:53:24.775Z,85.42
2017-01-16T03:53:50.875Z,85.61
2017-01-16T03:54:16.966Z,85.99
2017-01-16T03:54:43.057Z,85.8
2017-01-16T03:55:09.170Z,85.89
2017-01-16T03:55:35.268Z,85.61
2017-01-16T03:56:01.363Z,85.42
2017-01-16T03:56:27.471Z,85.8
2017-01-16T03:56:53.568Z,85.89
2017-01-16T03:57:19.664Z,85.8
2017-01-16T03:57:45.765Z,85.89
2017-01-16T03:58:11.872Z,86.18
2017-01-16T03:58:37.954Z,85.99
2017-01-16T03:59:04.056Z,85.89
2017-01-16T03:59:30.150Z,86.27
2017-01-16T03:59:56.259Z,85.8
2017-01-16T04:00:22.362Z,85.8
2017-01-16T04:00:48.450Z,85.04
2017-01-16T04:01:14.551Z,85.04
2017-01-16T04:01:40.661Z,85.32
2017-01-16T04:02:06.748Z,85.61
2017-01-16T04:02:32.870Z,84.75
2017-01-16T04:02:58.970Z,84.75
2017-01-16T04:03:25.064Z,84.99
2017-01-16T04:03:51.158Z,84.75
2017-01-16T04:04:17.265Z,84.66
2017-01-16T04:04:43.360Z,84.66
2017-01-16T04:05:09.469Z,84.47
2017-01-16T04:05:35.556Z,84.75
2017-01-16T04:06:01.654Z,85.23
2017-01-16T04:06:27.763Z,85.23
2017-01-16T04:06:53.849Z,85.51
2017-01-16T04:07:19.943Z,85.8
2017-01-16T04:07:46.054Z,86.18
2017-01-16T04:08:12.144Z,85.99
2017-01-16T04:08:38.241Z,85.99
2017-01-16T04:09:04.347Z,85.7
2017-01-16T04:09:30.448Z,86.18
2017-01-16T04:09:56.532Z,86.55
2017-01-16T04:10:22.639Z,86.55
2017-01-16T04:10:48.729Z,86.27
2017-01-16T04:11:14.839Z,86.18
2017-01-16T04:11:40.927Z,86.08
2017-01-16T04:12:07.019Z,85.89
2017-01-16T04:12:33.125Z,86.65
2017-01-16T04:12:59.224Z,86.65
2017-01-16T04:13:25.309Z,85.99
2017-01-16T04:13:51.422Z,85.89
2017-01-16T04:14:17.525Z,85.89
2017-01-16T04:14:43.611Z,85.42
2017-01-16T04:15:09.714Z,85.89
2017-01-16T04:15:35.822Z,86.65
2017-01-16T04:16:01.917Z,86.46
2017-01-16T04:16:28.009Z,86.36
2017-01-16T04:16:54.098Z,86.08
2017-01-16T04:17:20.206Z,86.36
2017-01-16T04:17:46.306Z,86.08
2017-01-16T04:18:12.403Z,85.99
2017-01-16T04:18:38.504Z,85.99
2017-01-16T04:19:04.615Z,86.18
2017-01-16T04:19:30.692Z,85.99
2017-01-16T04:19:56.792Z,86.08
2017-01-16T04:20:22.902Z,86.18
2017-01-16T04:20:48.987Z,85.99
2017-01-16T04:21:15.087Z,85.8
2017-01-16T04:21:41.184Z,84.75
2017-01-16T04:22:07.286Z,84.38
2017-01-16T04:22:33.397Z,83.62
2017-01-16T04:22:59.482Z,84
2017-01-16T04:23:25.584Z,83.81
2017-01-16T04:23:51.686Z,84.09
2017-01-16T04:24:17.777Z,84.19
2017-01-16T04:24:43.876Z,84
2017-01-16T04:25:09.983Z,84.38
2017-01-16T04:25:36.083Z,84.56
2017-01-16T04:26:02.167Z,84.56
2017-01-16T04:26:28.275Z,84.85
2017-01-16T04:26:54.370Z,84.75
2017-01-16T04:27:20.475Z,84.94
2017-01-16T04:27:46.565Z,84.56
2017-01-16T04:28:12.655Z,84.56
2017-01-16T04:28:38.767Z,85.13
2017-01-16T04:29:04.860Z,84.75
2017-01-16T04:29:30.953Z,84.66
2017-01-16T04:29:57.060Z,84.94
2017-01-16T04:30:23.158Z,84.28
2017-01-16T04:30:49.243Z,84.66
2017-01-16T04:31:15.354Z,84.09
2017-01-16T04:31:41.452Z,84.19
2017-01-16T04:32:07.544Z,84.19
2017-01-16T04:32:33.646Z,84.19
2017-01-16T04:32:59.755Z,84.28
2017-01-16T04:33:25.836Z,84.56
2017-01-16T04:33:51.940Z,84.09
2017-01-16T04:34:18.039Z,83.33
2017-01-16T04:34:44.135Z,83.24
2017-01-16T04:35:10.233Z,83.33
2017-01-16T04:35:36.334Z,83.9
2017-01-16T04:36:02.425Z,83.9
2017-01-16T04:36:28.516Z,84
2017-01-16T04:36:54.618Z,84
2017-01-16T04:37:20.711Z,84
2017-01-16T04:37:46.807Z,84.09
2017-01-16T04:38:12.912Z,83.9
2017-01-16T04:38:39.003Z,84
2017-01-16T04:39:05.115Z,83.24
2017-01-16T04:39:31.207Z,83.43
2017-01-16T04:39:57.299Z,83.62
2017-01-16T04:40:23.408Z,83.71
2017-01-16T04:40:49.507Z,83.71
2017-01-16T04:41:15.596Z,83.9
2017-01-16T04:41:41.705Z,83.71
2017-01-16T04:42:07.802Z,84
2017-01-16T04:42:33.896Z,83.62
2017-01-16T04:42:59.997Z,83.81
2017-01-16T04:43:26.099Z,83
2017-01-16T04:43:52.195Z,82.57
2017-01-16T04:44:18.294Z,82.57
2017-01-16T04:44:44.377Z,82.39
2017-01-16T04:45:10.486Z,82.48
2017-01-16T04:45:36.584Z,82.57
2017-01-16T04:46:02.688Z,82.76
2017-01-16T04:46:28.816Z,83.05
2017-01-16T04:46:54.921Z,82.95
2017-01-16T04:47:21.003Z,82.95
2017-01-16T04:47:47.106Z,82.76
2017-01-16T04:48:13.212Z,83.14
2017-01-16T04:48:39.302Z,83.05
2017-01-16T04:49:05.399Z,82.95
2017-01-16T04:49:31.493Z,83.05
2017-01-16T04:49:57.595Z,83.62
2017-01-16T04:50:23.711Z,83.43
2017-01-16T04:50:49.840Z,83.62
2017-01-16T04:51:15.946Z,83.14
2017-01-16T04:51:42.048Z,83.43
2017-01-16T04:52:08.140Z,83.62
2017-01-16T04:52:34.235Z,83.71
2017-01-16T04:53:00.344Z,84
2017-01-16T04:53:26.431Z,84.19
2017-01-16T04:53:52.525Z,83.81
2017-01-16T04:54:18.637Z,84.47
2017-01-16T04:54:44.734Z,84.19
2017-01-16T04:55:10.836Z,84.19
2017-01-16T04:55:36.929Z,84.28
2017-01-16T04:56:03.024Z,83.9
2017-01-16T04:56:29.156Z,83.9
2017-01-16T04:56:55.253Z,84
2017-01-16T04:57:21.340Z,84
2017-01-16T04:57:47.444Z,84.09
2017-01-16T04:58:13.542Z,84.19
2017-01-16T04:58:39.634Z,84.56
2017-01-16T04:59:05.738Z,84.38
2017-01-16T04:59:31.840Z,84
2017-01-16T04:59:57.927Z,83.9
2017-01-16T05:00:24.029Z,83.85
2017-01-16T05:00:50.121Z,83.66
2017-01-16T05:01:16.227Z,83.37
2017-01-16T05:01:42.326Z,83.28
2017-01-16T05:02:08.419Z,82.71
2017-01-16T05:02:34.523Z,82.62
2017-01-16T05:03:00.624Z,82.52
2017-01-16T05:03:26.721Z,83
2017-01-16T05:03:52.820Z,82.9
2017-01-16T05:04:18.926Z,82.24
2017-01-16T05:04:45.013Z,82.81
2017-01-16T05:05:11.113Z,82.24
2017-01-16T05:05:37.224Z,82.05
2017-01-16T05:06:03.309Z,82.33
2017-01-16T05:06:29.411Z,82.33
2017-01-16T05:06:55.506Z,82.24
2017-01-16T05:07:21.609Z,82.05
2017-01-16T05:07:47.714Z,82.43
2017-01-16T05:08:13.797Z,82.05
2017-01-16T05:08:39.893Z,81.67
2017-01-16T05:09:05.997Z,81.67
2017-01-16T05:09:32.090Z,82.05
2017-01-16T05:09:58.190Z,82.33
2017-01-16T05:10:24.293Z,82.24
2017-01-16T05:10:50.389Z,82.9
2017-01-16T05:11:16.475Z,82.9
2017-01-16T05:11:42.585Z,82.62
2017-01-16T05:12:08.683Z,82.43
2017-01-16T05:12:34.785Z,82.14
2017-01-16T05:13:00.879Z,81.95
2017-01-16T05:13:26.976Z,81.57
2017-01-16T05:13:53.084Z,81.86
2017-01-16T05:14:19.180Z,81.86
2017-01-16T05:14:45.273Z,81.48
2017-01-16T05:15:11.377Z,81.57
2017-01-16T05:15:37.472Z,81.48
2017-01-16T05:16:03.564Z,81.29
2017-01-16T05:16:29.673Z,81.57
2017-01-16T05:16:55.775Z,81.1
2017-01-16T05:17:21.863Z,81.01
2017-01-16T05:17:47.969Z,81.01
2017-01-16T05:18:14.077Z,80.82
2017-01-16T05:18:40.166Z,80.82
2017-01-16T05:19:06.265Z,81.1
2017-01-16T05:19:32.372Z,81.2
2017-01-16T05:19:58.465Z,81.38
2017-01-16T05:20:24.562Z,81.2
2017-01-16T05:20:50.662Z,81.29
2017-01-16T05:21:16.759Z,81.38
2017-01-16T05:21:42.848Z,80.91
2017-01-16T05:22:08.964Z,81.01
2017-01-16T05:22:35.061Z,81.2
2017-01-16T05:23:01.160Z,81.29
2017-01-16T05:23:27.253Z,81.48
2017-01-16T05:23:53.352Z,81.67
2017-01-16T05:24:19.457Z,81.29
2017-01-16T05:24:45.544Z,81.48
2017-01-16T05:25:11.633Z,81.29
2017-01-16T05:25:37.746Z,81.67
2017-01-16T05:26:03.847Z,82.05
2017-01-16T05:26:29.943Z,81.76
2017-01-16T05:26:56.045Z,81.67
2017-01-16T05:27:22.145Z,81.57
2017-01-16T05:27:48.231Z,81.38
2017-01-16T05:28:14.340Z,81.2
2017-01-16T05:28:40.426Z,80.53
2017-01-16T05:29:06.540Z,80.82
2017-01-16T05:29:32.633Z,81.01
2017-01-16T05:29:58.723Z,80.82
2017-01-16T05:30:24.831Z,80.91
2017-01-16T05:30:50.936Z,80.72
2017-01-16T05:31:17.029Z,80.82
2017-01-16T05:31:43.136Z,80.82
2017-01-16T05:32:09.239Z,81.2
2017-01-16T05:32:35.331Z,80.72
2017-01-16T05:33:01.425Z,80.72
2017-01-16T05:33:27.536Z,80.82
2017-01-16T05:33:53.622Z,81.01
2017-01-16T05:34:19.755Z,80.91
2017-01-16T05:34:45.848Z,81.48
2017-01-16T05:35:11.957Z,81.57
2017-01-16T05:35:38.066Z,81.95
2017-01-16T05:36:04.149Z,81.48
2017-01-16T05:36:30.246Z,81.38
2017-01-16T05:36:56.353Z,81.57
2017-01-16T05:37:22.449Z,81.38
2017-01-16T05:37:48.547Z,81.48
2017-01-16T05:38:14.651Z,81.2
2017-01-16T05:38:40.746Z,81.67
2017-01-16T05:39:06.833Z,81.48